sensor_id;sensor_type;location;lat;lon;timestamp;temperature;humidity
17473;DHT22;8853;52.552;13.356;2022-07-04T00:02:07;31.20;27.80
17473;DHT22;8853;52.552;13.356;2022-07-04T00:04:35;31.20;27.90
17473;DHT22;8853;52.552;13.356;2022-07-04T00:07:04;31.20;27.90
17473;DHT22;8853;52.552;13.356;2022-07-04T00:09:33;31.20;27.90
17473;DHT22;8853;52.552;13.356;2022-07-04T00:12:01;31.20;28.00
17473;DHT22;8853;52.552;13.356;2022-07-04T00:14:30;31.20;28.00
17473;DHT22;8853;52.552;13.356;2022-07-04T00:16:58;31.20;28.00
17473;DHT22;8853;52.552;13.356;2022-07-04T00:19:27;31.20;28.10
17473;DHT22;8853;52.552;13.356;2022-07-04T00:21:55;31.20;28.10
17473;DHT22;8853;52.552;13.356;2022-07-04T00:24:25;31.10;28.50
17473;DHT22;8853;52.552;13.356;2022-07-04T00:26:54;31.10;28.30
17473;DHT22;8853;52.552;13.356;2022-07-04T00:29:23;31.10;28.20
17473;DHT22;8853;52.552;13.356;2022-07-04T00:31:51;31.10;28.20
17473;DHT22;8853;52.552;13.356;2022-07-04T00:34:21;31.20;28.30
17473;DHT22;8853;52.552;13.356;2022-07-04T00:36:49;31.20;28.30
17473;DHT22;8853;52.552;13.356;2022-07-04T00:39:18;31.10;28.40
17473;DHT22;8853;52.552;13.356;2022-07-04T00:41:46;31.10;28.40
17473;DHT22;8853;52.552;13.356;2022-07-04T00:44:16;31.10;28.90
17473;DHT22;8853;52.552;13.356;2022-07-04T00:46:45;31.10;28.50
17473;DHT22;8853;52.552;13.356;2022-07-04T00:49:14;31.10;28.60
17473;DHT22;8853;52.552;13.356;2022-07-04T00:51:43;31.10;28.60
17473;DHT22;8853;52.552;13.356;2022-07-04T00:54:12;31.10;28.60
17473;DHT22;8853;52.552;13.356;2022-07-04T00:56:40;31.10;28.60
17473;DHT22;8853;52.552;13.356;2022-07-04T00:59:08;31.10;28.70
17473;DHT22;8853;52.552;13.356;2022-07-04T01:01:37;31.10;28.70
17473;DHT22;8853;52.552;13.356;2022-07-04T01:04:06;31.10;28.80
17473;DHT22;8853;52.552;13.356;2022-07-04T01:06:35;31.10;28.80
17473;DHT22;8853;52.552;13.356;2022-07-04T01:09:04;31.10;28.80
17473;DHT22;8853;52.552;13.356;2022-07-04T01:11:33;31.10;28.90
17473;DHT22;8853;52.552;13.356;2022-07-04T01:14:11;31.00;28.90
17473;DHT22;8853;52.552;13.356;2022-07-04T01:16:40;31.10;28.90
17473;DHT22;8853;52.552;13.356;2022-07-04T01:19:09;31.00;29.00
17473;DHT22;8853;52.552;13.356;2022-07-04T01:21:39;31.00;29.00
17473;DHT22;8853;52.552;13.356;2022-07-04T01:24:10;31.10;29.00
17473;DHT22;8853;52.552;13.356;2022-07-04T01:26:36;31.00;29.00
17473;DHT22;8853;52.552;13.356;2022-07-04T01:29:05;31.10;29.10
17473;DHT22;8853;52.552;13.356;2022-07-04T01:31:33;31.10;29.10
17473;DHT22;8853;52.552;13.356;2022-07-04T01:34:02;31.10;29.10
17473;DHT22;8853;52.552;13.356;2022-07-04T01:36:31;31.10;29.20
17473;DHT22;8853;52.552;13.356;2022-07-04T01:39:01;31.00;29.20
17473;DHT22;8853;52.552;13.356;2022-07-04T01:41:35;31.00;29.30
17473;DHT22;8853;52.552;13.356;2022-07-04T01:44:04;31.00;29.30
17473;DHT22;8853;52.552;13.356;2022-07-04T01:46:33;31.00;29.40
17473;DHT22;8853;52.552;13.356;2022-07-04T01:49:01;31.00;29.50
17473;DHT22;8853;52.552;13.356;2022-07-04T01:51:30;31.00;29.50
17473;DHT22;8853;52.552;13.356;2022-07-04T01:53:59;31.00;29.60
17473;DHT22;8853;52.552;13.356;2022-07-04T01:56:27;31.00;29.70
17473;DHT22;8853;52.552;13.356;2022-07-04T01:59:03;30.90;29.30
17473;DHT22;8853;52.552;13.356;2022-07-04T02:01:31;31.00;30.60
17473;DHT22;8853;52.552;13.356;2022-07-04T02:04:01;30.90;30.30
17473;DHT22;8853;52.552;13.356;2022-07-04T02:06:29;30.90;29.80
17473;DHT22;8853;52.552;13.356;2022-07-04T02:08:58;30.90;29.90
17473;DHT22;8853;52.552;13.356;2022-07-04T02:11:43;30.90;30.00
17473;DHT22;8853;52.552;13.356;2022-07-04T02:14:30;30.80;30.20
17473;DHT22;8853;52.552;13.356;2022-07-04T02:16:58;30.70;30.40
17473;DHT22;8853;52.552;13.356;2022-07-04T02:19:27;30.80;30.50
17473;DHT22;8853;52.552;13.356;2022-07-04T02:21:55;30.80;30.60
17473;DHT22;8853;52.552;13.356;2022-07-04T02:24:24;30.80;30.70
17473;DHT22;8853;52.552;13.356;2022-07-04T02:26:53;30.80;30.70
17473;DHT22;8853;52.552;13.356;2022-07-04T02:29:22;30.70;30.70
17473;DHT22;8853;52.552;13.356;2022-07-04T02:31:50;30.80;30.80
17473;DHT22;8853;52.552;13.356;2022-07-04T02:34:19;30.70;31.50
17473;DHT22;8853;52.552;13.356;2022-07-04T02:36:48;30.70;31.00
17473;DHT22;8853;52.552;13.356;2022-07-04T02:39:17;30.70;31.10
17473;DHT22;8853;52.552;13.356;2022-07-04T02:41:46;30.70;31.10
17473;DHT22;8853;52.552;13.356;2022-07-04T02:44:14;30.70;31.10
17473;DHT22;8853;52.552;13.356;2022-07-04T02:46:44;30.70;31.10
17473;DHT22;8853;52.552;13.356;2022-07-04T02:49:12;30.60;31.20
17473;DHT22;8853;52.552;13.356;2022-07-04T02:51:41;30.70;31.20
17473;DHT22;8853;52.552;13.356;2022-07-04T02:54:10;30.70;31.30
17473;DHT22;8853;52.552;13.356;2022-07-04T03:01:22;30.70;31.30
17473;DHT22;8853;52.552;13.356;2022-07-04T03:03:51;30.40;32.00
17473;DHT22;8853;52.552;13.356;2022-07-04T03:06:19;30.40;32.00
17473;DHT22;8853;52.552;13.356;2022-07-04T03:08:48;30.50;31.90
17473;DHT22;8853;52.552;13.356;2022-07-04T03:11:18;30.50;32.00
17473;DHT22;8853;52.552;13.356;2022-07-04T03:13:47;30.60;32.20
17473;DHT22;8853;52.552;13.356;2022-07-04T03:16:16;30.50;31.70
17473;DHT22;8853;52.552;13.356;2022-07-04T03:18:44;30.60;31.70
17473;DHT22;8853;52.552;13.356;2022-07-04T03:21:14;30.60;31.70
17473;DHT22;8853;52.552;13.356;2022-07-04T03:23:42;30.60;31.70
17473;DHT22;8853;52.552;13.356;2022-07-04T03:26:11;30.60;31.70
17473;DHT22;8853;52.552;13.356;2022-07-04T03:28:40;30.60;31.70
17473;DHT22;8853;52.552;13.356;2022-07-04T03:31:08;30.60;31.70
17473;DHT22;8853;52.552;13.356;2022-07-04T03:33:37;30.60;31.80
17473;DHT22;8853;52.552;13.356;2022-07-04T03:36:06;30.60;31.80
17473;DHT22;8853;52.552;13.356;2022-07-04T03:38:54;30.50;31.90
17473;DHT22;8853;52.552;13.356;2022-07-04T03:41:23;30.50;32.00
17473;DHT22;8853;52.552;13.356;2022-07-04T03:43:52;30.50;31.90
17473;DHT22;8853;52.552;13.356;2022-07-04T03:46:21;30.50;32.30
17473;DHT22;8853;52.552;13.356;2022-07-04T03:48:50;30.50;32.10
17473;DHT22;8853;52.552;13.356;2022-07-04T03:51:19;30.50;32.10
17473;DHT22;8853;52.552;13.356;2022-07-04T03:53:48;30.50;32.00
17473;DHT22;8853;52.552;13.356;2022-07-04T03:56:16;30.50;32.00
17473;DHT22;8853;52.552;13.356;2022-07-04T03:58:45;30.50;32.10
17473;DHT22;8853;52.552;13.356;2022-07-04T04:01:17;30.50;32.10
17473;DHT22;8853;52.552;13.356;2022-07-04T04:03:46;30.50;32.20
17473;DHT22;8853;52.552;13.356;2022-07-04T04:06:33;30.50;32.30
17473;DHT22;8853;52.552;13.356;2022-07-04T04:09:01;30.40;32.30
17473;DHT22;8853;52.552;13.356;2022-07-04T04:11:30;30.40;32.40
17473;DHT22;8853;52.552;13.356;2022-07-04T04:13:59;30.40;32.40
17473;DHT22;8853;52.552;13.356;2022-07-04T04:16:28;30.40;32.40
17473;DHT22;8853;52.552;13.356;2022-07-04T04:18:57;30.40;32.30
17473;DHT22;8853;52.552;13.356;2022-07-04T04:21:25;30.40;32.30
17473;DHT22;8853;52.552;13.356;2022-07-04T04:23:55;30.40;32.50
17473;DHT22;8853;52.552;13.356;2022-07-04T04:26:23;30.40;32.40
17473;DHT22;8853;52.552;13.356;2022-07-04T04:28:52;30.50;32.40
17473;DHT22;8853;52.552;13.356;2022-07-04T04:31:21;30.40;32.60
17473;DHT22;8853;52.552;13.356;2022-07-04T04:33:49;30.40;32.60
17473;DHT22;8853;52.552;13.356;2022-07-04T04:36:18;30.40;32.70
17473;DHT22;8853;52.552;13.356;2022-07-04T04:38:46;30.40;32.90
17473;DHT22;8853;52.552;13.356;2022-07-04T04:41:15;30.40;33.00
17473;DHT22;8853;52.552;13.356;2022-07-04T04:43:44;30.40;32.90
17473;DHT22;8853;52.552;13.356;2022-07-04T04:46:13;30.40;33.00
17473;DHT22;8853;52.552;13.356;2022-07-04T04:48:41;30.40;33.20
17473;DHT22;8853;52.552;13.356;2022-07-04T04:51:10;30.30;33.30
17473;DHT22;8853;52.552;13.356;2022-07-04T04:53:38;30.30;33.30
17473;DHT22;8853;52.552;13.356;2022-07-04T04:56:07;30.30;33.30
17473;DHT22;8853;52.552;13.356;2022-07-04T04:58:36;30.20;33.50
17473;DHT22;8853;52.552;13.356;2022-07-04T05:01:04;30.20;33.50
17473;DHT22;8853;52.552;13.356;2022-07-04T05:03:33;30.20;33.60
17473;DHT22;8853;52.552;13.356;2022-07-04T05:06:01;30.10;33.70
17473;DHT22;8853;52.552;13.356;2022-07-04T05:08:31;30.10;34.00
17473;DHT22;8853;52.552;13.356;2022-07-04T05:11:00;30.10;33.90
17473;DHT22;8853;52.552;13.356;2022-07-04T05:13:29;30.10;34.00
17473;DHT22;8853;52.552;13.356;2022-07-04T05:15:57;30.00;33.90
17473;DHT22;8853;52.552;13.356;2022-07-04T05:18:26;30.00;34.10
17473;DHT22;8853;52.552;13.356;2022-07-04T05:20:54;30.00;34.10
17473;DHT22;8853;52.552;13.356;2022-07-04T05:23:23;29.90;33.70
17473;DHT22;8853;52.552;13.356;2022-07-04T05:25:52;29.90;33.90
17473;DHT22;8853;52.552;13.356;2022-07-04T05:28:20;29.90;33.80
17473;DHT22;8853;52.552;13.356;2022-07-04T05:30:49;29.90;33.80
17473;DHT22;8853;52.552;13.356;2022-07-04T05:33:18;29.90;33.60
17473;DHT22;8853;52.552;13.356;2022-07-04T05:35:46;29.90;33.60
17473;DHT22;8853;52.552;13.356;2022-07-04T05:38:15;30.00;33.70
17473;DHT22;8853;52.552;13.356;2022-07-04T05:40:44;29.90;33.30
17473;DHT22;8853;52.552;13.356;2022-07-04T05:43:12;30.00;33.50
17473;DHT22;8853;52.552;13.356;2022-07-04T05:45:41;30.00;33.40
17473;DHT22;8853;52.552;13.356;2022-07-04T05:48:10;30.00;33.30
17473;DHT22;8853;52.552;13.356;2022-07-04T05:50:39;30.10;33.20
17473;DHT22;8853;52.552;13.356;2022-07-04T05:53:09;30.10;33.50
17473;DHT22;8853;52.552;13.356;2022-07-04T05:55:37;30.10;33.10
17473;DHT22;8853;52.552;13.356;2022-07-04T05:58:06;30.20;33.00
17473;DHT22;8853;52.552;13.356;2022-07-04T06:00:35;30.20;32.90
17473;DHT22;8853;52.552;13.356;2022-07-04T06:03:04;30.20;32.90
17473;DHT22;8853;52.552;13.356;2022-07-04T06:05:33;30.20;32.80
17473;DHT22;8853;52.552;13.356;2022-07-04T06:08:01;30.30;32.80
17473;DHT22;8853;52.552;13.356;2022-07-04T06:10:30;30.20;32.70
17473;DHT22;8853;52.552;13.356;2022-07-04T06:12:59;30.30;32.60
17473;DHT22;8853;52.552;13.356;2022-07-04T06:15:27;30.30;32.50
17473;DHT22;8853;52.552;13.356;2022-07-04T06:17:56;30.40;32.40
17473;DHT22;8853;52.552;13.356;2022-07-04T06:20:25;30.40;32.40
17473;DHT22;8853;52.552;13.356;2022-07-04T06:22:54;30.40;32.30
17473;DHT22;8853;52.552;13.356;2022-07-04T06:25:23;30.40;32.20
17473;DHT22;8853;52.552;13.356;2022-07-04T06:27:52;30.40;32.20
17473;DHT22;8853;52.552;13.356;2022-07-04T06:30:21;30.40;32.10
17473;DHT22;8853;52.552;13.356;2022-07-04T06:32:52;30.50;32.00
17473;DHT22;8853;52.552;13.356;2022-07-04T06:35:25;30.50;31.90
17473;DHT22;8853;52.552;13.356;2022-07-04T06:38:05;30.50;31.80
17473;DHT22;8853;52.552;13.356;2022-07-04T06:40:35;30.50;31.80
17473;DHT22;8853;52.552;13.356;2022-07-04T06:43:03;30.50;31.80
17473;DHT22;8853;52.552;13.356;2022-07-04T06:45:32;30.50;31.70
17473;DHT22;8853;52.552;13.356;2022-07-04T06:48:01;30.50;31.60
17473;DHT22;8853;52.552;13.356;2022-07-04T06:50:29;30.50;31.50
17473;DHT22;8853;52.552;13.356;2022-07-04T06:53:01;30.50;31.50
17473;DHT22;8853;52.552;13.356;2022-07-04T06:55:29;30.60;31.50
17473;DHT22;8853;52.552;13.356;2022-07-04T06:57:58;30.60;31.40
17473;DHT22;8853;52.552;13.356;2022-07-04T07:00:27;30.60;31.30
17473;DHT22;8853;52.552;13.356;2022-07-04T07:02:59;30.60;31.30
17473;DHT22;8853;52.552;13.356;2022-07-04T07:05:28;30.60;31.30
17473;DHT22;8853;52.552;13.356;2022-07-04T07:07:56;30.60;31.20
17473;DHT22;8853;52.552;13.356;2022-07-04T07:10:25;30.60;31.10
17473;DHT22;8853;52.552;13.356;2022-07-04T07:12:54;30.70;31.10
17473;DHT22;8853;52.552;13.356;2022-07-04T07:15:22;30.60;31.10
17473;DHT22;8853;52.552;13.356;2022-07-04T07:17:52;30.70;31.40
17473;DHT22;8853;52.552;13.356;2022-07-04T07:20:20;30.70;31.00
17473;DHT22;8853;52.552;13.356;2022-07-04T07:22:49;30.70;31.00
17473;DHT22;8853;52.552;13.356;2022-07-04T07:25:18;30.70;30.90
17473;DHT22;8853;52.552;13.356;2022-07-04T07:27:46;30.70;30.90
17473;DHT22;8853;52.552;13.356;2022-07-04T07:30:15;30.80;30.90
17473;DHT22;8853;52.552;13.356;2022-07-04T07:32:44;30.80;30.80
17473;DHT22;8853;52.552;13.356;2022-07-04T07:35:12;30.80;30.80
17473;DHT22;8853;52.552;13.356;2022-07-04T07:37:41;30.80;30.80
17473;DHT22;8853;52.552;13.356;2022-07-04T07:40:10;30.80;30.80
17473;DHT22;8853;52.552;13.356;2022-07-04T07:42:38;30.80;30.70
17473;DHT22;8853;52.552;13.356;2022-07-04T07:45:08;30.80;30.70
17473;DHT22;8853;52.552;13.356;2022-07-04T07:47:36;30.80;30.70
17473;DHT22;8853;52.552;13.356;2022-07-04T07:50:05;30.80;30.60
17473;DHT22;8853;52.552;13.356;2022-07-04T07:52:33;30.80;30.60
17473;DHT22;8853;52.552;13.356;2022-07-04T07:55:02;30.90;30.60
17473;DHT22;8853;52.552;13.356;2022-07-04T07:57:31;30.80;30.50
17473;DHT22;8853;52.552;13.356;2022-07-04T07:59:59;30.90;30.50
17473;DHT22;8853;52.552;13.356;2022-07-04T08:02:28;30.80;30.50
17473;DHT22;8853;52.552;13.356;2022-07-04T08:05:16;30.90;30.50
17473;DHT22;8853;52.552;13.356;2022-07-04T08:07:44;30.90;30.50
17473;DHT22;8853;52.552;13.356;2022-07-04T08:10:13;30.90;30.50
17473;DHT22;8853;52.552;13.356;2022-07-04T08:12:42;30.90;30.50
17473;DHT22;8853;52.552;13.356;2022-07-04T08:15:10;30.90;30.40
17473;DHT22;8853;52.552;13.356;2022-07-04T08:17:39;30.90;30.40
17473;DHT22;8853;52.552;13.356;2022-07-04T08:20:08;30.90;30.40
17473;DHT22;8853;52.552;13.356;2022-07-04T08:22:37;30.90;30.30
17473;DHT22;8853;52.552;13.356;2022-07-04T08:25:06;30.90;30.30
17473;DHT22;8853;52.552;13.356;2022-07-04T08:27:35;30.90;30.30
17473;DHT22;8853;52.552;13.356;2022-07-04T08:30:05;30.90;30.30
17473;DHT22;8853;52.552;13.356;2022-07-04T08:32:34;31.00;31.30
17473;DHT22;8853;52.552;13.356;2022-07-04T08:35:03;30.90;30.20
17473;DHT22;8853;52.552;13.356;2022-07-04T08:37:32;31.00;30.70
17473;DHT22;8853;52.552;13.356;2022-07-04T08:40:01;30.90;30.20
17473;DHT22;8853;52.552;13.356;2022-07-04T08:42:29;31.00;30.70
17473;DHT22;8853;52.552;13.356;2022-07-04T08:44:58;31.00;30.60
17473;DHT22;8853;52.552;13.356;2022-07-04T08:47:27;31.00;30.60
17473;DHT22;8853;52.552;13.356;2022-07-04T08:52:40;31.00;30.60
17473;DHT22;8853;52.552;13.356;2022-07-04T08:55:11;31.00;30.50
17473;DHT22;8853;52.552;13.356;2022-07-04T08:57:58;31.00;30.60
17473;DHT22;8853;52.552;13.356;2022-07-04T09:00:45;30.90;30.20
17473;DHT22;8853;52.552;13.356;2022-07-04T09:03:13;30.90;30.30
17473;DHT22;8853;52.552;13.356;2022-07-04T09:05:42;30.90;30.50
17473;DHT22;8853;52.552;13.356;2022-07-04T09:08:11;30.90;30.20
17473;DHT22;8853;52.552;13.356;2022-07-04T09:10:40;31.00;31.30
17473;DHT22;8853;52.552;13.356;2022-07-04T09:13:09;31.00;30.60
17473;DHT22;8853;52.552;13.356;2022-07-04T09:15:38;31.00;30.50
17473;DHT22;8853;52.552;13.356;2022-07-04T09:18:06;31.00;30.50
17473;DHT22;8853;52.552;13.356;2022-07-04T09:20:35;31.00;30.40
17473;DHT22;8853;52.552;13.356;2022-07-04T09:23:03;31.00;30.40
17473;DHT22;8853;52.552;13.356;2022-07-04T09:25:32;31.10;30.40
17473;DHT22;8853;52.552;13.356;2022-07-04T09:28:01;31.10;30.40
17473;DHT22;8853;52.552;13.356;2022-07-04T09:30:30;31.00;30.30
17473;DHT22;8853;52.552;13.356;2022-07-04T09:32:59;31.10;30.30
17473;DHT22;8853;52.552;13.356;2022-07-04T09:35:28;31.10;30.30
17473;DHT22;8853;52.552;13.356;2022-07-04T09:37:59;31.10;30.30
17473;DHT22;8853;52.552;13.356;2022-07-04T09:43:00;31.10;30.20
17473;DHT22;8853;52.552;13.356;2022-07-04T09:45:28;31.00;30.30
17473;DHT22;8853;52.552;13.356;2022-07-04T09:47:57;31.10;30.30
17473;DHT22;8853;52.552;13.356;2022-07-04T09:50:26;31.10;30.30
17473;DHT22;8853;52.552;13.356;2022-07-04T09:55:35;31.10;30.60
17473;DHT22;8853;52.552;13.356;2022-07-04T09:58:10;31.10;30.30
17473;DHT22;8853;52.552;13.356;2022-07-04T10:00:45;31.10;30.20
17473;DHT22;8853;52.552;13.356;2022-07-04T10:03:23;31.10;30.20
17473;DHT22;8853;52.552;13.356;2022-07-04T10:06:04;31.10;30.20
17473;DHT22;8853;52.552;13.356;2022-07-04T10:08:32;31.00;30.20
17473;DHT22;8853;52.552;13.356;2022-07-04T10:11:01;31.00;30.30
17473;DHT22;8853;52.552;13.356;2022-07-04T10:13:29;31.10;30.20
17473;DHT22;8853;52.552;13.356;2022-07-04T10:15:57;31.10;30.20
17473;DHT22;8853;52.552;13.356;2022-07-04T10:18:26;31.10;30.10
17473;DHT22;8853;52.552;13.356;2022-07-04T10:20:55;31.10;30.10
17473;DHT22;8853;52.552;13.356;2022-07-04T10:23:24;31.20;30.70
17473;DHT22;8853;52.552;13.356;2022-07-04T10:25:52;31.20;30.00
17473;DHT22;8853;52.552;13.356;2022-07-04T10:28:21;31.10;30.00
17473;DHT22;8853;52.552;13.356;2022-07-04T10:30:51;31.20;30.00
17473;DHT22;8853;52.552;13.356;2022-07-04T10:33:22;31.20;30.00
17473;DHT22;8853;52.552;13.356;2022-07-04T10:38:28;31.20;30.00
17473;DHT22;8853;52.552;13.356;2022-07-04T10:41:06;31.20;29.90
17473;DHT22;8853;52.552;13.356;2022-07-04T10:54:33;31.10;30.10
17473;DHT22;8853;52.552;13.356;2022-07-04T11:18:07;31.20;30.00
17473;DHT22;8853;52.552;13.356;2022-07-04T11:20:34;31.20;30.00
17473;DHT22;8853;52.552;13.356;2022-07-04T11:23:12;31.20;29.90
17473;DHT22;8853;52.552;13.356;2022-07-04T11:25:40;31.20;29.90
17473;DHT22;8853;52.552;13.356;2022-07-04T11:28:27;31.20;29.80
17473;DHT22;8853;52.552;13.356;2022-07-04T11:31:01;31.20;29.80
17473;DHT22;8853;52.552;13.356;2022-07-04T11:33:31;31.20;29.80
17473;DHT22;8853;52.552;13.356;2022-07-04T11:36:12;31.20;29.80
17473;DHT22;8853;52.552;13.356;2022-07-04T11:41:36;31.20;29.80
17473;DHT22;8853;52.552;13.356;2022-07-04T11:44:24;31.20;29.80
17473;DHT22;8853;52.552;13.356;2022-07-04T11:47:36;31.20;29.90
17473;DHT22;8853;52.552;13.356;2022-07-04T11:50:14;31.20;30.00
17473;DHT22;8853;52.552;13.356;2022-07-04T11:55:14;31.20;30.00
17473;DHT22;8853;52.552;13.356;2022-07-04T11:57:48;31.10;30.00
17473;DHT22;8853;52.552;13.356;2022-07-04T12:00:17;31.20;29.80
17473;DHT22;8853;52.552;13.356;2022-07-04T12:02:47;31.20;29.80
17473;DHT22;8853;52.552;13.356;2022-07-04T12:05:15;31.20;29.70
17473;DHT22;8853;52.552;13.356;2022-07-04T12:07:45;31.30;29.60
17473;DHT22;8853;52.552;13.356;2022-07-04T12:10:17;31.30;29.60
17473;DHT22;8853;52.552;13.356;2022-07-04T12:13:04;31.30;29.60
17473;DHT22;8853;52.552;13.356;2022-07-04T12:15:38;31.30;29.50
17473;DHT22;8853;52.552;13.356;2022-07-04T12:20:50;31.30;29.60
17473;DHT22;8853;52.552;13.356;2022-07-04T12:23:19;31.30;29.60
17473;DHT22;8853;52.552;13.356;2022-07-04T12:25:49;31.30;29.60
17473;DHT22;8853;52.552;13.356;2022-07-04T12:28:17;31.30;29.60
17473;DHT22;8853;52.552;13.356;2022-07-04T12:30:52;31.30;29.50
17473;DHT22;8853;52.552;13.356;2022-07-04T12:33:22;31.30;29.50
17473;DHT22;8853;52.552;13.356;2022-07-04T12:43:48;31.30;29.40
17473;DHT22;8853;52.552;13.356;2022-07-04T12:45:55;31.40;29.40
17473;DHT22;8853;52.552;13.356;2022-07-04T12:48:25;31.40;29.40
17473;DHT22;8853;52.552;13.356;2022-07-04T12:50:52;31.40;29.40
17473;DHT22;8853;52.552;13.356;2022-07-04T12:53:22;31.40;29.30
17473;DHT22;8853;52.552;13.356;2022-07-04T12:55:51;31.40;29.30
17473;DHT22;8853;52.552;13.356;2022-07-04T12:58:20;31.40;29.30
17473;DHT22;8853;52.552;13.356;2022-07-04T13:00:48;31.40;29.30
17473;DHT22;8853;52.552;13.356;2022-07-04T13:03:17;31.40;29.30
17473;DHT22;8853;52.552;13.356;2022-07-04T13:05:46;31.40;29.30
17473;DHT22;8853;52.552;13.356;2022-07-04T13:08:15;31.40;29.30
17473;DHT22;8853;52.552;13.356;2022-07-04T13:10:44;31.40;29.90
17473;DHT22;8853;52.552;13.356;2022-07-04T13:13:12;31.50;29.20
17473;DHT22;8853;52.552;13.356;2022-07-04T13:15:41;31.50;29.90
17473;DHT22;8853;52.552;13.356;2022-07-04T13:18:10;31.40;29.20
17473;DHT22;8853;52.552;13.356;2022-07-04T13:20:38;31.40;29.20
17473;DHT22;8853;52.552;13.356;2022-07-04T13:23:07;31.40;29.20
17473;DHT22;8853;52.552;13.356;2022-07-04T13:25:36;31.50;29.20
17473;DHT22;8853;52.552;13.356;2022-07-04T13:28:04;31.50;29.20
17473;DHT22;8853;52.552;13.356;2022-07-04T13:30:33;31.50;29.10
17473;DHT22;8853;52.552;13.356;2022-07-04T13:33:02;31.40;29.10
17473;DHT22;8853;52.552;13.356;2022-07-04T13:35:30;31.50;29.10
17473;DHT22;8853;52.552;13.356;2022-07-04T13:37:59;31.50;29.10
17473;DHT22;8853;52.552;13.356;2022-07-04T13:40:28;31.50;29.10
17473;DHT22;8853;52.552;13.356;2022-07-04T13:42:56;31.50;29.10
17473;DHT22;8853;52.552;13.356;2022-07-04T13:45:25;31.50;29.10
17473;DHT22;8853;52.552;13.356;2022-07-04T13:47:54;31.50;29.10
17473;DHT22;8853;52.552;13.356;2022-07-04T13:50:22;31.50;29.10
17473;DHT22;8853;52.552;13.356;2022-07-04T13:52:51;31.50;29.10
17473;DHT22;8853;52.552;13.356;2022-07-04T13:55:19;31.50;29.10
17473;DHT22;8853;52.552;13.356;2022-07-04T13:57:48;31.50;29.10
17473;DHT22;8853;52.552;13.356;2022-07-04T14:00:17;31.50;29.10
17473;DHT22;8853;52.552;13.356;2022-07-04T14:02:46;31.50;29.10
17473;DHT22;8853;52.552;13.356;2022-07-04T14:05:14;31.50;29.10
17473;DHT22;8853;52.552;13.356;2022-07-04T14:07:44;31.50;29.10
17473;DHT22;8853;52.552;13.356;2022-07-04T14:10:12;31.50;29.10
17473;DHT22;8853;52.552;13.356;2022-07-04T14:12:41;31.60;29.00
17473;DHT22;8853;52.552;13.356;2022-07-04T14:15:10;31.60;29.00
17473;DHT22;8853;52.552;13.356;2022-07-04T14:17:38;31.60;29.00
17473;DHT22;8853;52.552;13.356;2022-07-04T14:20:08;31.60;29.00
17473;DHT22;8853;52.552;13.356;2022-07-04T14:22:37;31.60;29.00
17473;DHT22;8853;52.552;13.356;2022-07-04T14:25:05;31.60;29.00
17473;DHT22;8853;52.552;13.356;2022-07-04T14:27:34;31.60;29.00
17473;DHT22;8853;52.552;13.356;2022-07-04T14:30:03;31.60;29.00
17473;DHT22;8853;52.552;13.356;2022-07-04T14:32:31;31.60;29.00
17473;DHT22;8853;52.552;13.356;2022-07-04T14:35:00;31.60;29.00
17473;DHT22;8853;52.552;13.356;2022-07-04T14:37:29;31.60;28.90
17473;DHT22;8853;52.552;13.356;2022-07-04T14:39:57;31.60;28.90
17473;DHT22;8853;52.552;13.356;2022-07-04T14:42:26;31.60;28.90
17473;DHT22;8853;52.552;13.356;2022-07-04T14:44:55;31.60;28.90
17473;DHT22;8853;52.552;13.356;2022-07-04T14:47:23;31.60;28.90
17473;DHT22;8853;52.552;13.356;2022-07-04T14:49:52;31.60;28.80
17473;DHT22;8853;52.552;13.356;2022-07-04T14:52:20;31.60;28.90
17473;DHT22;8853;52.552;13.356;2022-07-04T14:54:49;31.60;28.80
17473;DHT22;8853;52.552;13.356;2022-07-04T14:57:18;31.60;28.80
17473;DHT22;8853;52.552;13.356;2022-07-04T14:59:47;31.60;28.80
17473;DHT22;8853;52.552;13.356;2022-07-04T15:02:16;31.60;28.80
17473;DHT22;8853;52.552;13.356;2022-07-04T15:04:44;31.70;28.80
17473;DHT22;8853;52.552;13.356;2022-07-04T15:07:13;31.70;28.80
17473;DHT22;8853;52.552;13.356;2022-07-04T15:09:42;31.70;28.80
17473;DHT22;8853;52.552;13.356;2022-07-04T15:12:10;31.70;28.80
17473;DHT22;8853;52.552;13.356;2022-07-04T15:14:39;31.70;28.80
17473;DHT22;8853;52.552;13.356;2022-07-04T15:17:07;31.70;28.80
17473;DHT22;8853;52.552;13.356;2022-07-04T15:19:36;31.70;28.80
17473;DHT22;8853;52.552;13.356;2022-07-04T15:22:23;31.70;28.70
17473;DHT22;8853;52.552;13.356;2022-07-04T15:25:11;31.60;28.80
17473;DHT22;8853;52.552;13.356;2022-07-04T15:27:39;31.60;27.70
17473;DHT22;8853;52.552;13.356;2022-07-04T15:30:08;31.60;24.90
17473;DHT22;8853;52.552;13.356;2022-07-04T15:32:37;31.60;23.90
17473;DHT22;8853;52.552;13.356;2022-07-04T15:35:06;31.60;23.50
17473;DHT22;8853;52.552;13.356;2022-07-04T15:37:35;31.60;23.20
17473;DHT22;8853;52.552;13.356;2022-07-04T15:40:04;31.60;23.30
17473;DHT22;8853;52.552;13.356;2022-07-04T15:42:33;31.50;22.60
17473;DHT22;8853;52.552;13.356;2022-07-04T15:45:02;31.50;22.20
17473;DHT22;8853;52.552;13.356;2022-07-04T15:47:31;31.50;21.90
17473;DHT22;8853;52.552;13.356;2022-07-04T15:50:00;31.40;21.90
17473;DHT22;8853;52.552;13.356;2022-07-04T15:52:29;31.40;21.70
17473;DHT22;8853;52.552;13.356;2022-07-04T15:54:59;31.40;23.40
17473;DHT22;8853;52.552;13.356;2022-07-04T15:57:28;31.40;23.40
17473;DHT22;8853;52.552;13.356;2022-07-04T15:59:57;31.40;23.80
17473;DHT22;8853;52.552;13.356;2022-07-04T16:02:25;31.40;23.20
17473;DHT22;8853;52.552;13.356;2022-07-04T16:04:54;31.40;22.90
17473;DHT22;8853;52.552;13.356;2022-07-04T16:07:23;31.50;22.20
17473;DHT22;8853;52.552;13.356;2022-07-04T16:09:51;31.50;21.20
17473;DHT22;8853;52.552;13.356;2022-07-04T16:12:20;31.50;20.60
17473;DHT22;8853;52.552;13.356;2022-07-04T16:14:49;31.50;20.20
17473;DHT22;8853;52.552;13.356;2022-07-04T16:17:18;31.50;20.10
17473;DHT22;8853;52.552;13.356;2022-07-04T16:19:46;31.50;20.40
17473;DHT22;8853;52.552;13.356;2022-07-04T16:22:15;31.50;20.30
17473;DHT22;8853;52.552;13.356;2022-07-04T16:24:45;31.50;19.70
17473;DHT22;8853;52.552;13.356;2022-07-04T16:27:14;31.40;19.70
17473;DHT22;8853;52.552;13.356;2022-07-04T16:29:43;31.40;19.70
17473;DHT22;8853;52.552;13.356;2022-07-04T16:32:11;31.40;19.80
17473;DHT22;8853;52.552;13.356;2022-07-04T16:34:41;31.30;20.10
17473;DHT22;8853;52.552;13.356;2022-07-04T16:37:09;31.30;20.00
17473;DHT22;8853;52.552;13.356;2022-07-04T16:39:38;31.30;20.00
17473;DHT22;8853;52.552;13.356;2022-07-04T16:42:07;31.20;20.20
17473;DHT22;8853;52.552;13.356;2022-07-04T16:44:35;31.30;20.10
17473;DHT22;8853;52.552;13.356;2022-07-04T16:47:04;31.20;20.30
17473;DHT22;8853;52.552;13.356;2022-07-04T16:49:33;31.30;20.30